Time;durP1;ratioP1;P1;durP2;ratioP2;P2;SDS_P1;SDS_P2;PMS_P1;PMS_P2;Temp;Humidity;BMP_temperature;BMP_pressure;BME280_temperature;BME280_humidity;BME280_pressure;Samples;Min_cycle;Max_cycle;Signal;HPM_P1;HPM_P2
2021/12/01 00:00:09;;;;;;;6.77;2.00;;;;;;;-145.23;100.00;58621.06;5019268;28;20251;-55
2021/12/01 00:02:35;;;;;;;2.00;1.20;;;;;;;-145.23;100.00;58621.06;5018328;28;20329;-55
2021/12/01 00:06:20;;;;;;;4.83;1.70;;;;;;;2.81;95.60;99961.72;5083019;27;21002;-55
2021/12/01 00:08:46;;;;;;;3.73;1.43;;;;;;;2.81;95.84;99964.31;5024294;28;20310;-55
2021/12/01 00:11:13;;;;;;;3.77;1.50;;;;;;;2.78;95.77;99955.59;5056581;28;20253;-55
2021/12/01 00:13:39;;;;;;;5.00;1.97;;;;;;;2.74;96.62;99949.50;5057886;28;20946;-55
2021/12/01 00:16:07;;;;;;;6.70;1.47;;;;;;;2.71;96.86;99941.66;5056778;28;20336;-56
2021/12/01 00:18:34;;;;;;;4.57;1.23;;;;;;;2.78;97.25;99935.72;5056461;28;20230;-54
2021/12/01 00:21:00;;;;;;;1.97;1.63;;;;;;;2.74;97.09;99933.94;5058452;28;20335;-54
2021/12/01 00:23:28;;;;;;;5.93;2.77;;;;;;;2.74;96.62;99936.53;5056328;28;20707;-57
2021/12/01 00:25:54;;;;;;;3.60;1.10;;;;;;;2.70;97.29;99923.47;5055987;28;20267;-55
2021/12/01 00:28:21;;;;;;;3.03;1.27;;;;;;;2.75;97.19;99922.72;5055587;28;20301;-54
2021/12/01 00:30:48;;;;;;;3.30;1.63;;;;;;;2.73;97.41;99923.53;5056763;28;20286;-56
2021/12/01 00:33:17;;;;;;;4.17;1.50;;;;;;;2.73;97.07;99924.38;5056816;28;20260;-56
2021/12/01 00:35:44;;;;;;;1.93;1.17;;;;;;;2.73;97.56;99923.53;5055068;28;21493;-55
2021/12/01 00:38:10;;;;;;;3.23;1.37;;;;;;;2.80;97.71;99921.06;5053634;28;20263;-54
2021/12/01 00:40:38;;;;;;;7.07;2.43;;;;;;;2.74;97.23;99920.06;5067400;28;20296;-56
2021/12/01 00:43:04;;;;;;;7.43;1.57;;;;;;;2.80;96.93;99925.38;5060281;28;20291;-54
2021/12/01 00:45:32;;;;;;;5.10;2.33;;;;;;;2.78;98.05;99932.28;5065814;28;20719;-55
2021/12/01 00:47:59;;;;;;;3.77;1.87;;;;;;;2.69;98.56;99935.56;5060015;28;20230;-56
2021/12/01 00:50:27;;;;;;;4.83;1.73;;;;;;;2.68;99.17;99940.72;5059698;28;20707;-56
2021/12/01 00:52:59;;;;;;;7.57;2.37;;;;;;;2.65;99.14;99938.94;5054899;28;20697;-56
2021/12/01 00:55:25;;;;;;;4.43;1.60;;;;;;;2.62;99.85;99934.56;5060026;28;20248;-56
2021/12/01 00:57:54;;;;;;;3.77;1.60;;;;;;;2.65;100.00;99938.06;5055703;28;20279;-55
2021/12/01 01:00:21;;;;;;;3.50;1.67;;;;;;;2.65;100.00;99940.66;5058331;28;20262;-56
2021/12/01 01:02:48;;;;;;;4.57;1.63;;;;;;;2.65;100.00;99936.34;5061640;28;20258;-54
2021/12/01 01:05:14;;;;;;;8.93;2.73;;;;;;;2.72;100.00;99926.97;5060987;28;20326;-55
2021/12/01 01:07:41;;;;;;;6.97;1.73;;;;;;;2.67;100.00;99926.91;5055112;28;20312;-56
2021/12/01 01:10:17;;;;;;;9.17;2.37;;;;;;;2.66;100.00;99917.34;5061197;28;20294;-55
2021/12/01 01:18:14;;;;;;;10.87;2.20;;;;;;;2.63;100.00;99906.94;5042537;28;20242;-56
2021/12/01 01:20:40;;;;;;;10.07;2.17;;;;;;;2.60;100.00;99914.69;5036544;28;20275;-56
2021/12/01 01:23:07;;;;;;;5.10;1.93;;;;;;;2.61;100.00;99904.34;5041553;28;20342;-55
2021/12/01 01:25:33;;;;;;;7.17;1.33;;;;;;;2.59;100.00;99899.97;5040933;28;20317;-56
2021/12/01 01:28:00;;;;;;;6.37;2.07;;;;;;;2.62;100.00;99894.84;5046637;28;20316;-55
2021/12/01 01:30:26;;;;;;;8.47;3.07;;;;;;;2.63;100.00;99899.16;5045424;28;20281;-55
2021/12/01 01:32:54;;;;;;;9.37;2.03;;;;;;;2.62;100.00;99892.25;5046230;28;20265;-55
2021/12/01 01:35:20;;;;;;;5.43;1.63;;;;;;;2.64;100.00;99893.16;5052069;28;20269;-56
2021/12/01 01:37:47;;;;;;;8.00;2.00;;;;;;;2.65;100.00;99886.25;5045746;28;20261;-56
2021/12/01 01:40:14;;;;;;;6.67;3.00;;;;;;;2.59;100.00;99879.22;5042867;28;20242;-55
2021/12/01 01:42:40;;;;;;;7.80;2.07;;;;;;;2.62;100.00;99874.09;5045854;28;20393;-56
2021/12/01 01:45:07;;;;;;;8.73;1.90;;;;;;;2.66;100.00;99869.84;5044761;28;20266;-56
2021/12/01 01:47:33;;;;;;;5.97;2.13;;;;;;;2.69;100.00;99860.41;5045380;28;20247;-55
2021/12/01 01:50:14;;;;;;;8.60;1.93;;;;;;;2.65;100.00;99856.03;5047828;28;20239;-58
2021/12/01 01:52:40;;;;;;;8.80;2.37;;;;;;;2.69;100.00;99855.22;5049963;28;20734;-55
2021/12/01 01:55:07;;;;;;;4.43;1.77;;;;;;;2.74;100.00;99853.59;5044039;28;20304;-55
2021/12/01 01:57:34;;;;;;;3.93;1.67;;;;;;;2.76;100.00;99841.50;5043710;28;20831;-54
2021/12/01 02:00:00;;;;;;;8.97;2.40;;;;;;;2.80;100.00;99840.69;5045938;28;20254;-56
2021/12/01 02:02:27;;;;;;;6.43;2.80;;;;;;;2.81;100.00;99836.41;5045229;28;20265;-55
2021/12/01 02:04:56;;;;;;;4.87;2.37;;;;;;;2.81;100.00;99824.31;5045245;28;20314;-55
2021/12/01 02:07:23;;;;;;;7.73;1.93;;;;;;;2.79;100.00;99814.78;5044983;28;20325;-55
2021/12/01 02:09:50;;;;;;;7.50;2.63;;;;;;;2.72;100.00;99819.00;5043273;28;20332;-55
2021/12/01 02:12:16;;;;;;;6.93;3.37;;;;;;;2.68;100.00;99816.34;5042995;28;20653;-55
2021/12/01 02:14:42;;;;;;;8.77;3.53;;;;;;;2.75;100.00;99798.31;5033726;28;20266;-56
2021/12/01 02:17:09;;;;;;;14.40;3.23;;;;;;;2.78;100.00;99797.50;5044478;28;20269;-56
2021/12/01 02:19:37;;;;;;;8.20;3.00;;;;;;;2.79;100.00;99787.13;5044872;28;20258;-56
2021/12/01 02:22:05;;;;;;;8.53;3.00;;;;;;;2.74;100.00;99791.38;5041208;28;20261;-57
2021/12/01 02:24:31;;;;;;;13.00;4.73;;;;;;;2.76;100.00;99783.63;5045399;28;20263;-56
2021/12/01 02:26:58;;;;;;;9.27;3.17;;;;;;;2.74;100.00;99773.25;5045229;28;20776;-56
2021/12/01 02:29:26;;;;;;;5.57;2.87;;;;;;;2.75;100.00;99764.63;5044253;28;20255;-55
2021/12/01 02:31:53;;;;;;;9.40;2.53;;;;;;;2.78;100.00;99766.38;5043921;28;21781;-55
2021/12/01 02:34:22;;;;;;;9.47;2.70;;;;;;;2.75;100.00;99743.88;5045447;28;20273;-56
2021/12/01 02:36:51;;;;;;;11.90;2.83;;;;;;;2.75;100.00;99746.47;5045174;28;20241;-55
2021/12/01 02:39:19;;;;;;;8.90;2.47;;;;;;;2.98;100.00;99738.13;5044844;28;20760;-56
2021/12/01 02:41:50;;;;;;;12.20;2.67;;;;;;;2.91;100.00;99744.09;5045915;28;20317;-55
2021/12/01 02:44:17;;;;;;;15.77;2.80;;;;;;;2.98;100.00;99738.13;5042955;28;20781;-56
2021/12/01 02:46:44;;;;;;;11.20;2.20;;;;;;;2.89;100.00;99740.63;5041125;28;20238;-55
2021/12/01 02:49:11;;;;;;;3.13;2.23;;;;;;;2.86;100.00;99720.69;5044869;28;20650;-56
2021/12/01 02:51:38;;;;;;;4.77;2.47;;;;;;;2.81;100.00;99725.84;5047854;28;20242;-55
2021/12/01 02:54:05;;;;;;;2.70;1.80;;;;;;;2.85;100.00;99717.25;5041871;28;20235;-55
2021/12/01 02:56:34;;;;;;;8.63;3.23;;;;;;;2.80;100.00;99711.09;5046390;28;20678;-56
2021/12/01 02:59:01;;;;;;;12.07;2.93;;;;;;;2.81;100.00;99710.28;5043611;28;20289;-56
2021/12/01 03:01:28;;;;;;;13.30;3.20;;;;;;;2.82;100.00;99709.41;5040135;28;20227;-54
2021/12/01 03:03:54;;;;;;;10.07;3.10;;;;;;;2.85;100.00;99701.69;5037966;28;20246;-54
2021/12/01 03:06:25;;;;;;;10.17;3.10;;;;;;;2.87;100.00;99699.09;5041804;28;20277;-55
2021/12/01 03:08:51;;;;;;;8.40;3.13;;;;;;;2.93;100.00;99698.31;5041865;28;20259;-56
2021/12/01 03:11:18;;;;;;;7.27;2.20;;;;;;;2.99;100.00;99686.31;5045210;28;20235;-53
2021/12/01 03:13:45;;;;;;;9.50;2.13;;;;;;;2.96;100.00;99688.00;5041064;28;20642;-55
2021/12/01 03:16:12;;;;;;;7.20;3.20;;;;;;;2.96;100.00;99682.81;5037469;28;20236;-55
2021/12/01 03:18:38;;;;;;;16.23;3.00;;;;;;;2.98;100.00;99681.09;5037828;28;20294;-55
2021/12/01 03:21:04;;;;;;;4.87;2.73;;;;;;;2.95;100.00;99678.47;5039882;28;20231;-55
2021/12/01 03:23:31;;;;;;;11.57;3.70;;;;;;;2.95;100.00;99674.16;5044716;28;20230;-56
2021/12/01 03:25:57;;;;;;;13.07;4.00;;;;;;;2.99;100.00;99672.50;5043685;28;20389;-56
2021/12/01 03:28:23;;;;;;;10.50;3.73;;;;;;;2.97;100.00;99669.00;5041222;28;20261;-55
2021/12/01 03:30:52;;;;;;;9.10;2.63;;;;;;;3.00;100.00;99658.66;5044905;28;20235;-56
2021/12/01 03:33:21;;;;;;;10.27;2.73;;;;;;;3.00;100.00;99658.66;5047745;28;20262;-54
2021/12/01 03:35:50;;;;;;;14.50;3.50;;;;;;;3.08;100.00;99662.22;5043130;28;20243;-56
2021/12/01 03:38:18;;;;;;;7.10;2.43;;;;;;;3.05;100.00;99652.69;5049027;28;20243;-54
2021/12/01 03:40:44;;;;;;;7.07;2.73;;;;;;;3.03;100.00;99650.91;5047622;28;20258;-56
2021/12/01 03:43:10;;;;;;;6.37;2.47;;;;;;;3.09;100.00;99638.03;5043180;28;20315;-54
2021/12/01 03:45:38;;;;;;;8.27;2.57;;;;;;;3.21;100.00;99640.75;5046513;28;20239;-54
2021/12/01 03:48:06;;;;;;;11.03;2.90;;;;;;;3.10;100.00;99634.59;5044633;28;20228;-53
2021/12/01 03:50:32;;;;;;;9.10;3.47;;;;;;;3.11;100.00;99638.91;5046977;28;20337;-55
2021/12/01 03:52:59;;;;;;;8.00;2.53;;;;;;;3.08;100.00;99626.78;5049296;28;20234;-54
2021/12/01 03:55:25;;;;;;;11.40;3.53;;;;;;;3.03;100.00;99622.41;5039637;28;20335;-56
2021/12/01 03:57:51;;;;;;;6.00;2.77;;;;;;;3.15;100.00;99622.53;5043506;28;20254;-55
2021/12/01 04:00:18;;;;;;;4.83;2.90;;;;;;;3.13;100.00;99618.19;5041884;28;20259;-55
2021/12/01 04:02:45;;;;;;;7.43;2.50;;;;;;;3.25;100.00;99619.19;5017147;22;20268;-60
2021/12/01 04:05:13;;;;;;;14.37;2.77;;;;;;;3.26;100.00;99620.03;4983965;28;20288;-57
2021/12/01 04:07:39;;;;;;;6.97;3.03;;;;;;;3.21;100.00;99616.53;4984635;28;20246;-59
2021/12/01 04:10:08;;;;;;;13.47;2.63;;;;;;;3.19;100.00;99603.53;4979520;28;20647;-59
2021/12/01 04:12:35;;;;;;;12.53;2.33;;;;;;;3.17;100.00;99605.28;4985062;28;20797;-57
2021/12/01 04:15:02;;;;;;;10.23;2.53;;;;;;;3.33;100.00;99595.91;4983826;28;20264;-59
2021/12/01 04:17:28;;;;;;;7.53;2.50;;;;;;;3.29;100.00;99588.94;4976902;28;20310;-61
2021/12/01 04:19:55;;;;;;;7.47;2.27;;;;;;;3.32;100.00;99589.84;4984604;28;20244;-59
2021/12/01 04:22:22;;;;;;;10.37;2.80;;;;;;;3.31;100.00;99588.13;4983700;28;20279;-60
2021/12/01 04:24:49;;;;;;;10.37;2.33;;;;;;;3.28;100.00;99580.31;4982441;28;20717;-58
2021/12/01 04:27:16;;;;;;;10.77;3.77;;;;;;;3.34;100.00;99577.78;4984626;28;20659;-59
2021/12/01 04:29:42;;;;;;;14.77;4.00;;;;;;;3.31;100.00;99567.38;4983497;28;20618;-59
2021/12/01 04:32:09;;;;;;;10.03;2.77;;;;;;;3.47;100.00;99562.31;4984080;28;20265;-60
2021/12/01 04:34:35;;;;;;;7.23;2.63;;;;;;;3.37;100.00;99560.47;4984657;28;20286;-58
2021/12/01 04:37:01;;;;;;;13.27;2.57;;;;;;;3.32;100.00;99553.53;4973678;28;20846;-58
2021/12/01 04:39:29;;;;;;;16.07;3.37;;;;;;;3.23;100.00;99545.69;4984642;28;20256;-60
2021/12/01 04:42:03;;;;;;;8.50;1.97;;;;;;;3.20;100.00;99526.63;4981945;28;20242;-60
2021/12/01 04:44:30;;;;;;;13.00;2.83;;;;;;;3.21;100.00;99523.19;4982346;28;20237;-60
2021/12/01 04:46:57;;;;;;;18.03;3.37;;;;;;;3.14;100.00;99511.88;4978108;28;20241;-59
2021/12/01 04:49:25;;;;;;;9.57;2.17;;;;;;;3.15;100.00;99507.56;4985145;28;20269;-60
2021/12/01 04:51:54;;;;;;;6.50;2.20;;;;;;;3.07;100.00;99504.91;4995649;28;20243;-59
2021/12/01 04:54:20;;;;;;;6.43;2.07;;;;;;;3.15;100.00;99498.03;4990095;28;20776;-60
2021/12/01 04:56:49;;;;;;;6.37;2.37;;;;;;;3.16;100.00;99489.44;4987757;28;20307;-59
2021/12/01 04:59:17;;;;;;;8.57;2.57;;;;;;;3.14;100.00;99479.91;4985989;28;20257;-60
2021/12/01 05:01:44;;;;;;;7.83;2.50;;;;;;;3.04;100.00;99476.34;4983509;28;20241;-58
2021/12/01 05:04:11;;;;;;;6.17;2.33;;;;;;;3.14;100.00;99465.19;4984509;28;20233;-60
2021/12/01 05:06:37;;;;;;;7.00;2.60;;;;;;;3.02;100.00;99465.06;4988848;28;20248;-59
2021/12/01 05:09:04;;;;;;;9.13;2.07;;;;;;;3.03;100.00;99456.47;4986958;28;20291;-60
2021/12/01 05:11:30;;;;;;;5.80;2.17;;;;;;;3.00;100.00;99456.44;4986626;28;20320;-59
2021/12/01 05:13:58;;;;;;;5.40;2.33;;;;;;;2.99;100.00;99449.53;4987579;28;20295;-59
2021/12/01 05:16:24;;;;;;;10.60;3.03;;;;;;;2.98;100.00;99442.56;4986943;28;20244;-58
2021/12/01 05:18:51;;;;;;;10.03;2.97;;;;;;;3.01;100.00;99438.28;4982342;28;20269;-59
2021/12/01 05:21:18;;;;;;;7.37;2.43;;;;;;;3.02;100.00;99431.38;4987812;28;20237;-59
2021/12/01 05:23:44;;;;;;;13.60;3.90;;;;;;;2.96;100.00;99423.56;4986410;28;20265;-60
2021/12/01 05:26:11;;;;;;;5.00;2.10;;;;;;;3.14;100.00;99413.34;4986696;28;20269;-61
2021/12/01 05:28:38;;;;;;;16.03;2.60;;;;;;;3.10;100.00;99406.41;4984854;28;20266;-59
2021/12/01 05:31:05;;;;;;;5.50;2.13;;;;;;;3.05;100.00;99413.25;4987304;28;20267;-60
2021/12/01 05:33:32;;;;;;;14.40;2.33;;;;;;;3.16;100.00;99396.06;4989088;28;20256;-59
2021/12/01 05:35:58;;;;;;;8.47;2.63;;;;;;;3.20;100.00;99397.81;4988001;28;20264;-59
2021/12/01 05:38:25;;;;;;;10.60;2.20;;;;;;;3.23;100.00;99392.66;4986195;28;20249;-56
2021/12/01 05:40:52;;;;;;;8.70;2.30;;;;;;;3.32;100.00;99381.47;4985562;28;20241;-57
2021/12/01 05:43:19;;;;;;;9.97;2.77;;;;;;;3.15;100.00;99386.53;4988261;28;20257;-58
2021/12/01 05:45:46;;;;;;;6.17;2.37;;;;;;;3.11;100.00;99371.81;4985526;28;20268;-59
2021/12/01 05:48:14;;;;;;;5.50;2.87;;;;;;;3.19;100.00;99370.13;4986264;28;20261;-58
2021/12/01 05:50:41;;;;;;;5.20;2.23;;;;;;;3.17;100.00;99351.13;4981665;28;20232;-59
2021/12/01 05:53:07;;;;;;;8.37;2.57;;;;;;;3.25;100.00;99344.25;4986608;28;20233;-59
2021/12/01 05:55:34;;;;;;;7.60;2.80;;;;;;;3.26;100.00;99333.00;4984983;28;20237;-60
2021/12/01 05:58:00;;;;;;;9.13;3.03;;;;;;;3.49;100.00;99321.91;4984663;28;20229;-58
2021/12/01 06:00:26;;;;;;;10.80;2.93;;;;;;;3.38;100.00;99318.41;4988782;28;20868;-61
2021/12/01 06:02:53;;;;;;;6.63;2.43;;;;;;;3.44;100.00;99318.41;4984604;28;20285;-60
2021/12/01 06:05:22;;;;;;;5.07;2.43;;;;;;;3.66;100.00;99299.50;4986588;28;20361;-59
2021/12/01 06:07:48;;;;;;;10.20;2.73;;;;;;;3.54;100.00;99305.47;4981648;28;20257;-60
2021/12/01 06:10:15;;;;;;;6.97;2.93;;;;;;;3.57;100.00;99299.44;4986935;28;20281;-57
2021/12/01 06:12:42;;;;;;;4.77;2.60;;;;;;;3.61;100.00;99285.59;4985258;28;20238;-60
2021/12/01 06:15:10;;;;;;;8.23;3.43;;;;;;;3.52;100.00;99281.28;4977540;28;20320;-59
2021/12/01 06:17:36;;;;;;;7.70;2.90;;;;;;;3.63;100.00;99281.31;4986701;28;20236;-58
2021/12/01 06:20:05;;;;;;;6.93;2.83;;;;;;;3.51;100.00;99283.84;4987674;28;20291;-59
2021/12/01 06:22:32;;;;;;;8.43;2.87;;;;;;;3.34;100.00;99284.66;4980077;28;20254;-57
2021/12/01 06:24:59;;;;;;;4.30;2.50;;;;;;;3.40;100.00;99267.38;4988240;28;20241;-60
2021/12/01 06:27:26;;;;;;;6.73;3.43;;;;;;;3.33;100.00;99264.78;4987737;28;20391;-59
2021/12/01 06:29:53;;;;;;;3.93;2.60;;;;;;;3.50;100.00;99257.03;4985700;28;20229;-60
2021/12/01 06:32:19;;;;;;;10.17;3.33;;;;;;;3.41;100.00;99250.97;4986587;28;20237;-59
2021/12/01 06:34:45;;;;;;;7.83;3.53;;;;;;;3.33;100.00;99244.03;4985770;28;20253;-58
2021/12/01 06:37:12;;;;;;;3.90;3.47;;;;;;;3.35;100.00;99244.88;4987051;28;20240;-58
2021/12/01 06:39:40;;;;;;;8.87;3.57;;;;;;;3.32;100.00;99237.06;4984929;28;20290;-58
2021/12/01 06:42:06;;;;;;;5.73;3.17;;;;;;;3.32;100.00;99226.69;4983776;28;20761;-58
2021/12/01 06:44:33;;;;;;;9.50;3.93;;;;;;;3.32;100.00;99234.47;4987129;28;20249;-59
2021/12/01 06:47:00;;;;;;;4.90;2.83;;;;;;;3.37;100.00;99223.25;4984804;28;20329;-58
2021/12/01 06:49:27;;;;;;;11.33;3.40;;;;;;;3.50;100.00;99222.44;4985743;28;20260;-59
2021/12/01 06:51:53;;;;;;;8.60;4.10;;;;;;;3.46;100.00;99229.34;4988001;28;20285;-59
2021/12/01 06:54:19;;;;;;;4.93;3.10;;;;;;;3.43;100.00;99207.72;4984010;28;20349;-59
2021/12/01 06:56:47;;;;;;;7.07;4.30;;;;;;;3.48;100.00;99200.84;4988284;28;20229;-58
2021/12/01 06:59:13;;;;;;;4.83;3.87;;;;;;;3.40;100.00;99202.50;4985263;28;20288;-58
2021/12/01 07:01:40;;;;;;;4.53;3.90;;;;;;;3.47;100.00;99196.47;4979702;28;20238;-57
2021/12/01 07:04:07;;;;;;;4.53;4.03;;;;;;;3.45;100.00;99200.81;4985355;28;20242;-57
2021/12/01 07:06:33;;;;;;;4.40;4.00;;;;;;;3.47;100.00;99175.72;4988414;28;20311;-58
2021/12/01 07:09:00;;;;;;;7.73;3.93;;;;;;;3.53;100.00;99166.22;4987285;28;20265;-57
2021/12/01 07:11:27;;;;;;;5.10;4.60;;;;;;;3.65;100.00;99174.91;4985209;28;20879;-58
2021/12/01 07:13:55;;;;;;;6.10;5.13;;;;;;;3.63;100.00;99176.63;4980260;28;20288;-57
2021/12/01 07:16:22;;;;;;;5.93;4.97;;;;;;;3.65;100.00;99165.41;4988074;28;20503;-59
2021/12/01 07:18:48;;;;;;;7.17;4.63;;;;;;;3.63;100.00;99159.34;4983683;28;20287;-58
2021/12/01 07:21:14;;;;;;;7.50;6.07;;;;;;;3.59;100.00;99147.22;4984827;28;20279;-58
2021/12/01 07:23:41;;;;;;;7.33;5.40;;;;;;;3.78;100.00;99143.75;4982973;28;20259;-58
2021/12/01 07:26:07;;;;;;;5.73;5.10;;;;;;;3.78;100.00;99142.91;4984897;28;20269;-57
2021/12/01 07:28:34;;;;;;;9.20;6.33;;;;;;;3.74;100.00;99130.78;4979925;28;20261;-59
2021/12/01 07:31:02;;;;;;;10.27;6.07;;;;;;;3.80;100.00;99117.81;4987437;28;20284;-59
2021/12/01 07:33:28;;;;;;;6.53;5.90;;;;;;;3.92;100.00;99119.56;4985212;28;20652;-55
2021/12/01 07:35:55;;;;;;;13.63;7.47;;;;;;;3.86;100.00;99104.84;4984418;28;20315;-57
2021/12/01 07:38:21;;;;;;;8.33;6.43;;;;;;;3.97;100.00;99103.13;4982640;28;20235;-57
2021/12/01 07:40:47;;;;;;;8.90;6.10;;;;;;;3.96;100.00;99095.31;4983776;28;20281;-56
2021/12/01 07:43:14;;;;;;;8.40;6.60;;;;;;;4.05;100.00;99090.13;4985157;28;20673;-57
2021/12/01 07:45:43;;;;;;;9.40;6.87;;;;;;;4.09;100.00;99076.25;4982415;28;20228;-58
2021/12/01 07:48:10;;;;;;;11.67;8.07;;;;;;;4.18;100.00;99076.25;4984295;28;20240;-58
2021/12/01 07:50:37;;;;;;;8.30;6.87;;;;;;;4.29;100.00;99064.09;4982925;28;20238;-58
2021/12/01 07:53:03;;;;;;;9.83;7.27;;;;;;;4.27;100.00;99062.38;4985880;28;20277;-57
2021/12/01 07:55:30;;;;;;;8.97;7.30;;;;;;;4.39;100.00;99058.84;4986787;28;20229;-58
2021/12/01 07:57:56;;;;;;;9.13;7.87;;;;;;;4.39;100.00;99064.06;4978048;28;20253;-56
2021/12/01 08:00:23;;;;;;;8.03;6.80;;;;;;;4.42;100.00;99053.66;4982733;28;20258;-56
2021/12/01 08:02:49;;;;;;;9.27;7.77;;;;;;;4.53;100.00;99054.50;4981612;28;20246;-59
2021/12/01 08:05:17;;;;;;;9.80;8.03;;;;;;;4.57;100.00;99043.22;4983252;28;20312;-57
2021/12/01 08:07:43;;;;;;;8.90;7.57;;;;;;;4.61;100.00;99044.94;4984719;28;20288;-58
2021/12/01 08:10:10;;;;;;;7.87;7.13;;;;;;;4.68;100.00;99041.44;4979129;28;20233;-58
2021/12/01 08:12:38;;;;;;;8.87;7.97;;;;;;;4.76;100.00;99031.84;4979947;28;20244;-58
2021/12/01 08:15:06;;;;;;;8.90;8.00;;;;;;;4.76;100.00;99031.84;4985043;28;20237;-57
2021/12/01 08:17:32;;;;;;;9.83;8.17;;;;;;;4.77;100.00;99025.81;4983079;28;20237;-58
2021/12/01 08:19:59;;;;;;;7.57;6.87;;;;;;;4.84;100.00;99025.75;4977593;28;20242;-60
2021/12/01 08:22:27;;;;;;;8.40;7.53;;;;;;;4.94;100.00;99024.81;4982447;28;20649;-59
2021/12/01 08:24:54;;;;;;;9.57;8.50;;;;;;;4.94;100.00;99017.03;4982171;28;20994;-60
2021/12/01 08:27:20;;;;;;;8.67;7.87;;;;;;;4.94;100.00;99017.03;4987337;28;20246;-57
2021/12/01 08:29:46;;;;;;;9.53;8.53;;;;;;;5.06;100.00;99016.97;4988844;28;20230;-59
2021/12/01 08:32:13;;;;;;;8.70;7.80;;;;;;;5.12;100.00;99005.63;4985236;28;20312;-58
2021/12/01 08:34:39;;;;;;;10.40;8.07;;;;;;;5.02;100.00;99010.06;4988758;28;20233;-58
2021/12/01 08:37:08;;;;;;;9.73;8.73;;;;;;;5.05;100.00;99004.81;4988083;28;20237;-59
2021/12/01 08:39:35;;;;;;;9.70;8.73;;;;;;;5.15;100.00;99001.28;4986340;28;20253;-56
2021/12/01 08:42:02;;;;;;;8.77;7.87;;;;;;;5.12;100.00;98996.09;4988072;28;20328;-58
2021/12/01 08:44:28;;;;;;;8.23;7.43;;;;;;;5.15;100.00;98988.25;4987738;28;20253;-57
2021/12/01 08:46:55;;;;;;;10.73;8.47;;;;;;;5.14;100.00;98989.16;4986606;28;20306;-58
2021/12/01 08:49:21;;;;;;;8.10;7.23;;;;;;;5.13;100.00;98982.22;4987058;28;20232;-57
2021/12/01 08:51:48;;;;;;;8.37;7.17;;;;;;;5.18;100.00;98975.25;4985942;28;20312;-58
2021/12/01 08:54:15;;;;;;;7.90;7.07;;;;;;;5.20;100.00;98978.72;4980969;28;20233;-58
2021/12/01 08:56:42;;;;;;;7.27;6.60;;;;;;;5.21;100.00;98972.63;4987024;28;20232;-59
2021/12/01 08:59:09;;;;;;;9.50;8.03;;;;;;;5.19;100.00;98971.75;4984827;28;20263;-57
2021/12/01 09:01:35;;;;;;;8.13;7.33;;;;;;;5.21;100.00;98963.94;4983090;28;20292;-56
2021/12/01 09:04:02;;;;;;;7.27;5.80;;;;;;;5.22;100.00;98969.13;4988707;28;20773;-56
2021/12/01 09:06:28;;;;;;;6.67;6.07;;;;;;;5.19;100.00;98976.97;4987267;28;20250;-56
2021/12/01 09:08:55;;;;;;;5.80;5.30;;;;;;;5.20;100.00;98960.50;4986773;28;21271;-58
2021/12/01 09:11:21;;;;;;;6.37;5.77;;;;;;;5.24;100.00;98963.94;4984917;28;20300;-59
2021/12/01 09:13:49;;;;;;;6.13;5.57;;;;;;;5.22;100.00;98966.53;4987808;28;20233;-58
2021/12/01 09:16:15;;;;;;;5.10;4.70;;;;;;;5.19;100.00;98957.88;4987237;28;20265;-58
2021/12/01 09:18:42;;;;;;;5.90;5.40;;;;;;;5.16;100.00;98956.19;4983673;28;20242;-57
2021/12/01 09:21:09;;;;;;;4.70;4.30;;;;;;;5.18;100.00;98949.22;4982043;28;20239;-57
2021/12/01 09:23:36;;;;;;;6.00;4.93;;;;;;;5.15;100.00;98941.44;4986254;28;20313;-57
2021/12/01 09:26:02;;;;;;;5.40;4.90;;;;;;;5.21;100.00;98951.81;4986040;28;20801;-58
2021/12/01 09:28:29;;;;;;;4.43;4.03;;;;;;;5.20;100.00;98934.47;4987340;28;20245;-59
2021/12/01 09:30:59;;;;;;;4.63;4.10;;;;;;;5.25;100.00;98932.69;4985675;28;20275;-59
2021/12/01 09:33:27;;;;;;;3.93;3.63;;;;;;;5.26;100.00;98934.44;4985052;28;20810;-59
2021/12/01 09:35:54;;;;;;;3.50;3.23;;;;;;;5.26;100.00;98928.34;4985675;28;20239;-57
2021/12/01 09:38:21;;;;;;;4.33;3.50;;;;;;;5.33;100.00;98916.16;4983573;28;20238;-58
2021/12/01 09:40:51;;;;;;;4.20;3.80;;;;;;;5.29;100.00;98914.44;4985540;28;20232;-59
2021/12/01 09:43:19;;;;;;;3.63;3.33;;;;;;;5.25;100.00;98908.41;4983858;28;20245;-59
2021/12/01 09:45:46;;;;;;;20.13;11.60;;;;;;;5.30;100.00;98909.25;4986439;28;20356;-59
2021/12/01 09:48:14;;;;;;;2.93;2.73;;;;;;;5.26;100.00;98894.53;4979578;28;20317;-59
2021/12/01 09:50:41;;;;;;;4.43;3.40;;;;;;;5.32;100.00;98906.63;4990232;28;20287;-57
2021/12/01 09:53:07;;;;;;;4.33;3.27;;;;;;;5.36;100.00;98895.31;4986816;28;20312;-58
2021/12/01 09:55:35;;;;;;;3.67;3.27;;;;;;;5.35;100.00;98885.78;4988825;28;20237;-57
2021/12/01 09:58:05;;;;;;;3.73;2.73;;;;;;;5.37;100.00;98878.81;4985822;28;20230;-57
2021/12/01 10:00:33;;;;;;;3.07;2.77;;;;;;;5.38;100.00;98863.19;4985826;28;20222;-57
2021/12/01 10:02:59;;;;;;;3.53;2.70;;;;;;;5.48;100.00;98866.56;4990513;23;20763;-54
2021/12/01 10:05:49;;;;;;;3.03;2.83;;;;;;;5.44;100.00;98854.44;4985273;28;20241;-54
2021/12/01 10:08:20;;;;;;;3.67;3.07;;;;;;;5.39;100.00;98859.69;4983860;28;20724;-54
2021/12/01 10:10:46;;;;;;;3.23;3.03;;;;;;;5.46;100.00;98834.47;4980867;28;20241;-54
2021/12/01 10:13:13;;;;;;;3.17;2.77;;;;;;;5.50;100.00;98838.75;4987292;28;20312;-54
2021/12/01 10:15:39;;;;;;;2.93;2.73;;;;;;;5.49;100.00;98842.25;4984113;28;20731;-54
2021/12/01 10:18:11;;;;;;;2.77;2.53;;;;;;;5.51;100.00;98832.72;4988023;28;20295;-54
2021/12/01 10:20:37;;;;;;;3.63;3.33;;;;;;;5.51;100.00;98822.28;5003160;28;20986;-54
2021/12/01 10:23:10;;;;;;;3.37;2.70;;;;;;;5.55;100.00;98828.31;5003538;28;20259;-53
2021/12/01 10:25:36;;;;;;;2.10;1.90;;;;;;;5.55;100.00;98823.13;5012372;28;20225;-53
2021/12/01 10:28:03;;;;;;;3.47;2.90;;;;;;;5.49;100.00;98813.63;4990330;28;20233;-54
2021/12/01 10:30:37;;;;;;;2.53;2.33;;;;;;;5.56;100.00;98796.19;4985624;28;20742;-54
2021/12/01 10:33:08;;;;;;;2.87;2.47;;;;;;;5.59;100.00;98791.81;4986544;28;20230;-54
2021/12/01 10:35:35;;;;;;;2.83;2.60;;;;;;;5.61;100.00;98779.63;4986945;28;20738;-54
2021/12/01 10:38:01;;;;;;;3.20;2.90;;;;;;;5.68;100.00;98790.81;4992146;28;20288;-53
2021/12/01 10:40:29;;;;;;;2.50;2.30;;;;;;;5.60;100.00;98796.13;4987915;28;20237;-54
2021/12/01 10:42:57;;;;;;;2.50;2.27;;;;;;;5.56;100.00;98804.88;4984661;28;20269;-54
2021/12/01 10:45:26;;;;;;;3.40;2.33;;;;;;;5.58;100.00;98787.50;4983917;28;20292;-54
2021/12/01 10:47:52;;;;;;;12.03;8.37;;;;;;;5.54;100.00;98774.53;4978766;28;20292;-53
2021/12/01 10:50:20;;;;;;;3.63;3.27;;;;;;;5.55;100.00;98777.13;4983553;28;20249;-56
2021/12/01 10:52:50;;;;;;;3.67;3.37;;;;;;;5.56;100.00;98767.56;4978500;28;20234;-55
2021/12/01 10:55:17;;;;;;;3.20;2.87;;;;;;;5.58;100.00;98761.47;4984406;28;20329;-57
2021/12/01 10:57:48;;;;;;;2.90;2.70;;;;;;;5.59;100.00;98744.97;4989844;28;20391;-54
2021/12/01 11:00:18;;;;;;;3.20;2.90;;;;;;;5.56;100.00;98757.16;4987605;28;20247;-55
2021/12/01 11:02:45;;;;;;;3.73;3.23;;;;;;;5.53;100.00;98747.63;4996686;28;20832;-56
2021/12/01 11:05:11;;;;;;;3.77;3.47;;;;;;;5.49;100.00;98740.75;4998319;28;20342;-55
2021/12/01 11:07:37;;;;;;;3.83;3.53;;;;;;;5.45;100.00;98739.94;4994362;28;20521;-56
2021/12/01 11:10:14;;;;;;;4.50;4.10;;;;;;;5.42;100.00;98729.56;4994332;28;20453;-55
2021/12/01 11:12:41;;;;;;;4.30;3.93;;;;;;;5.37;100.00;98733.09;4994744;28;20237;-55
2021/12/01 11:15:19;;;;;;;4.20;3.90;;;;;;;5.37;100.00;98725.28;4988227;28;20262;-55
2021/12/01 11:17:46;;;;;;;3.90;3.60;;;;;;;5.39;100.00;98718.31;4988117;28;20778;-54
2021/12/01 11:20:13;;;;;;;4.67;4.27;;;;;;;5.41;100.00;98720.03;4985061;28;20238;-54
2021/12/01 11:22:39;;;;;;;4.60;4.03;;;;;;;5.49;100.00;98702.56;4985653;28;20234;-55
2021/12/01 11:25:19;;;;;;;4.07;3.78;;;;;;;5.59;100.00;98705.06;4984783;28;20445;-57
2021/12/01 11:27:46;;;;;;;4.73;3.40;;;;;;;5.66;100.00;98702.34;4977110;28;20237;-53
2021/12/01 11:30:13;;;;;;;4.63;2.87;;;;;;;5.71;100.00;98697.91;4979863;28;21198;-55
2021/12/01 11:32:40;;;;;;;3.30;3.10;;;;;;;5.75;100.00;98690.94;4984897;28;20241;-54
2021/12/01 11:35:07;;;;;;;3.10;2.80;;;;;;;5.79;100.00;98670.91;4981940;28;20666;-55
2021/12/01 11:37:34;;;;;;;2.70;2.50;;;;;;;5.82;100.00;98682.13;4986757;28;20234;-54